createdAt,value
2023-04-08T00:00:37.833Z,9.39
2023-04-08T00:03:18.644Z,9.37
2023-04-08T00:05:47.166Z,9.35
2023-04-08T00:08:15.571Z,9.33
2023-04-08T00:10:43.845Z,9.31
2023-04-08T00:13:12.432Z,9.30
2023-04-08T00:15:41.908Z,9.31
2023-04-08T00:18:10.083Z,9.33
2023-04-08T00:20:38.196Z,9.34
2023-04-08T00:23:06.518Z,9.38
2023-04-08T00:25:34.579Z,9.42
2023-04-08T00:28:03.035Z,9.47
2023-04-08T00:30:31.440Z,9.51
2023-04-08T00:32:59.796Z,9.55
2023-04-08T00:35:28.134Z,9.59
2023-04-08T00:37:56.382Z,9.64
2023-04-08T00:40:24.503Z,9.69
2023-04-08T00:42:52.579Z,9.74
2023-04-08T00:45:21.035Z,9.79
2023-04-08T00:47:52.868Z,9.83
2023-04-08T00:50:21.514Z,9.86
2023-04-08T00:52:49.590Z,9.88
2023-04-08T00:55:17.644Z,9.89
2023-04-08T00:57:46.778Z,9.91
2023-04-08T01:00:16.628Z,9.92
2023-04-08T01:03:07.224Z,9.95
2023-04-08T01:05:47.485Z,9.96
2023-04-08T01:08:17.808Z,9.94
2023-04-08T01:10:51.715Z,9.93
2023-04-08T01:13:23.902Z,9.94
2023-04-08T01:15:53.736Z,9.97
2023-04-08T01:18:24.113Z,9.96
2023-04-08T01:20:54.773Z,9.99
2023-04-08T01:23:54.974Z,10.00
2023-04-08T01:26:25.931Z,10.01
2023-04-08T01:28:59.514Z,10.03
2023-04-08T01:31:28.472Z,10.05
2023-04-08T01:34:01.894Z,10.06
2023-04-08T01:36:32.771Z,10.06
2023-04-08T01:39:03.160Z,10.07
2023-04-08T01:41:34.169Z,10.09
2023-04-08T01:44:04.130Z,10.09
2023-04-08T01:46:33.858Z,10.08
2023-04-08T01:49:05.937Z,10.08
2023-04-08T01:51:38.886Z,10.08
2023-04-08T01:54:07.170Z,10.05
2023-04-08T01:56:39.510Z,10.02
2023-04-08T01:59:17.051Z,10.01
2023-04-08T02:01:47.327Z,10.00
2023-04-08T02:04:15.644Z,10.02
2023-04-08T02:06:47.165Z,10.03
2023-04-08T02:09:15.768Z,10.05
2023-04-08T02:11:43.816Z,10.06
2023-04-08T02:14:12.124Z,10.07
2023-04-08T02:16:50.168Z,10.08
2023-04-08T02:19:36.641Z,10.09
2023-04-08T02:22:17.298Z,10.10
2023-04-08T02:24:47.296Z,10.10
2023-04-08T02:27:17.513Z,10.12
2023-04-08T02:29:46.273Z,10.12
2023-04-08T02:32:15.348Z,10.12
2023-04-08T02:34:44.384Z,10.13
2023-04-08T02:37:12.582Z,10.12
2023-04-08T02:39:40.711Z,10.12
2023-04-08T02:42:10.724Z,10.12
2023-04-08T02:44:39.967Z,10.14
2023-04-08T02:47:08.247Z,10.14
2023-04-08T02:49:36.596Z,10.13
2023-04-08T02:52:04.771Z,10.12
2023-04-08T02:54:33.235Z,10.12
2023-04-08T02:57:01.963Z,10.13
2023-04-08T02:59:30.059Z,10.13
2023-04-08T03:01:58.630Z,10.13
2023-04-08T03:04:26.854Z,10.13
2023-04-08T03:06:54.858Z,10.14
2023-04-08T03:09:23.032Z,10.13
2023-04-08T03:11:53.390Z,10.13
2023-04-08T03:14:22.371Z,10.12
2023-04-08T03:16:50.531Z,10.10
2023-04-08T03:19:18.712Z,10.09
2023-04-08T03:21:46.843Z,10.06
2023-04-08T03:24:15.123Z,10.05
2023-04-08T03:26:43.207Z,10.05
2023-04-08T03:29:11.599Z,10.06
2023-04-08T03:31:40.056Z,10.07
2023-04-08T03:34:08.136Z,10.08
2023-04-08T03:36:36.704Z,10.10
2023-04-08T03:39:05.992Z,10.11
2023-04-08T03:41:34.266Z,10.12
2023-04-08T03:44:02.548Z,10.14
2023-04-08T03:46:30.864Z,10.14
2023-04-08T03:48:58.947Z,10.13
2023-04-08T03:51:28.644Z,10.14
2023-04-08T03:53:56.848Z,10.13
2023-04-08T03:56:25.700Z,10.13
2023-04-08T03:58:53.729Z,10.12
2023-04-08T04:01:22.106Z,10.12
2023-04-08T04:03:50.559Z,10.11
2023-04-08T04:06:18.947Z,10.11
2023-04-08T04:08:47.230Z,10.11
2023-04-08T04:11:15.490Z,10.11
2023-04-08T04:13:43.559Z,10.12
2023-04-08T04:16:11.757Z,10.12
2023-04-08T04:18:39.894Z,10.11
2023-04-08T04:21:08.199Z,10.10
2023-04-08T04:23:36.437Z,10.11
2023-04-08T04:26:11.665Z,10.11
2023-04-08T04:28:40.047Z,10.11
2023-04-08T04:31:08.170Z,10.10
2023-04-08T04:33:36.500Z,10.09
2023-04-08T04:36:04.864Z,10.08
2023-04-08T04:38:33.021Z,10.08
2023-04-08T04:41:01.778Z,10.07
2023-04-08T04:43:30.325Z,10.08
2023-04-08T04:45:58.434Z,10.09
2023-04-08T04:48:26.593Z,10.10
2023-04-08T04:50:59.146Z,10.12
2023-04-08T04:53:27.303Z,10.14
2023-04-08T04:55:55.672Z,10.15
2023-04-08T04:58:24.012Z,10.17
2023-04-08T05:00:52.091Z,10.19
2023-04-08T05:03:20.745Z,10.20
2023-04-08T05:05:53.152Z,10.22
2023-04-08T05:08:21.895Z,10.23
2023-04-08T05:10:55.789Z,10.23
2023-04-08T05:13:24.012Z,10.27
2023-04-08T05:15:52.185Z,10.29
2023-04-08T05:18:20.595Z,10.31
2023-04-08T05:20:48.908Z,10.32
2023-04-08T05:23:17.215Z,10.31
2023-04-08T05:25:45.430Z,10.32
2023-04-08T05:28:13.548Z,10.34
2023-04-08T05:30:42.109Z,10.35
2023-04-08T05:33:10.249Z,10.37
2023-04-08T05:35:38.385Z,10.36
2023-04-08T05:38:07.758Z,10.36
2023-04-08T05:40:36.351Z,10.36
2023-04-08T05:43:04.620Z,10.36
2023-04-08T05:45:32.782Z,10.37
2023-04-08T05:48:00.893Z,10.38
2023-04-08T05:50:29.144Z,10.40
2023-04-08T05:52:57.602Z,10.42
2023-04-08T05:55:26.035Z,10.45
2023-04-08T05:57:54.161Z,10.48
2023-04-08T06:00:22.414Z,10.50
2023-04-08T06:02:50.936Z,10.52
2023-04-08T06:05:19.363Z,10.53
2023-04-08T06:07:47.459Z,10.55
2023-04-08T06:10:16.364Z,10.56
2023-04-08T06:12:44.694Z,10.56
2023-04-08T06:15:13.128Z,10.57
2023-04-08T06:17:41.522Z,10.56
2023-04-08T06:20:10.092Z,10.55
2023-04-08T06:22:38.237Z,10.56
2023-04-08T06:25:07.252Z,10.55
2023-04-08T06:27:35.664Z,10.56
2023-04-08T06:30:03.973Z,10.59
2023-04-08T06:32:32.170Z,10.61
2023-04-08T06:35:00.224Z,10.64
2023-04-08T06:37:28.309Z,10.67
2023-04-08T06:39:56.787Z,10.72
2023-04-08T06:42:25.029Z,10.75
2023-04-08T06:45:11.930Z,10.78
2023-04-08T06:47:40.026Z,10.83
2023-04-08T06:50:08.426Z,10.86
2023-04-08T06:52:36.892Z,10.88
2023-04-08T06:55:05.313Z,10.90
2023-04-08T06:57:38.810Z,10.93
2023-04-08T07:00:07.801Z,10.96
2023-04-08T07:02:36.196Z,10.99
2023-04-08T07:05:05.444Z,11.02
2023-04-08T07:07:33.800Z,11.05
2023-04-08T07:10:02.034Z,11.07
2023-04-08T07:12:30.293Z,11.12
2023-04-08T07:14:58.661Z,11.15
2023-04-08T07:17:26.710Z,11.19
2023-04-08T07:19:54.971Z,11.22
2023-04-08T07:22:23.288Z,11.26
2023-04-08T07:24:52.305Z,11.29
2023-04-08T07:27:20.380Z,11.32
2023-04-08T07:29:54.253Z,11.36
2023-04-08T07:32:22.503Z,11.40
2023-04-08T07:34:51.124Z,11.44
2023-04-08T07:37:19.538Z,11.47
2023-04-08T07:39:47.974Z,11.50
2023-04-08T07:42:16.660Z,11.54
2023-04-08T07:44:46.274Z,11.57
2023-04-08T07:47:14.450Z,11.61
2023-04-08T07:49:42.674Z,11.65
2023-04-08T07:52:11.108Z,11.69
2023-04-08T07:54:39.172Z,11.73
2023-04-08T07:57:07.311Z,11.75
2023-04-08T07:59:36.222Z,11.75
2023-04-08T08:02:04.597Z,11.76
2023-04-08T08:04:32.882Z,11.78
2023-04-08T08:07:01.380Z,11.79
2023-04-08T08:09:31.593Z,11.82
2023-04-08T08:12:00.348Z,11.85
2023-04-08T08:14:29.190Z,11.87
2023-04-08T08:16:58.270Z,11.91
2023-04-08T08:19:26.561Z,11.94
2023-04-08T08:21:54.695Z,11.99
2023-04-08T08:24:23.067Z,12.03
2023-04-08T08:26:51.230Z,12.07
2023-04-08T08:29:19.331Z,12.09
2023-04-08T08:31:48.631Z,12.12
2023-04-08T08:34:16.997Z,12.16
2023-04-08T08:36:45.431Z,12.17
2023-04-08T08:39:13.518Z,12.19
2023-04-08T08:41:42.479Z,12.21
2023-04-08T08:44:11.143Z,12.23
2023-04-08T08:46:45.529Z,12.27
2023-04-08T08:49:14.351Z,12.31
2023-04-08T08:51:45.722Z,12.35
2023-04-08T08:54:15.490Z,12.38
2023-04-08T08:56:43.693Z,12.40
2023-04-08T08:59:11.749Z,12.39
2023-04-08T09:01:43.962Z,12.38
2023-04-08T09:04:18.450Z,12.41
2023-04-08T09:06:50.411Z,12.45
2023-04-08T09:09:18.754Z,12.50
2023-04-08T09:11:47.761Z,12.56
2023-04-08T09:14:23.240Z,12.64
2023-04-08T09:16:52.872Z,12.71
2023-04-08T09:19:21.206Z,12.77
2023-04-08T09:22:09.935Z,12.81
2023-04-08T09:24:38.516Z,12.85
2023-04-08T09:27:06.726Z,12.90
2023-04-08T09:29:37.454Z,12.94
2023-04-08T09:32:06.882Z,13.00
2023-04-08T09:34:35.354Z,13.05
2023-04-08T09:37:03.469Z,13.10
2023-04-08T09:39:32.312Z,13.15
2023-04-08T09:42:01.596Z,13.20
2023-04-08T09:44:33.325Z,13.23
2023-04-08T09:47:20.638Z,13.28
2023-04-08T09:49:58.607Z,13.31
2023-04-08T09:52:46.110Z,13.34
2023-04-08T09:55:17.769Z,13.30
2023-04-08T09:57:58.636Z,13.30
2023-04-08T10:00:34.697Z,13.33
2023-04-08T10:03:11.992Z,13.36
2023-04-08T10:05:42.536Z,13.41
2023-04-08T10:08:11.169Z,13.47
2023-04-08T10:10:41.745Z,13.54
2023-04-08T10:13:10.380Z,13.61
2023-04-08T10:15:40.916Z,13.69
2023-04-08T10:18:12.370Z,13.77
2023-04-08T10:20:40.633Z,13.83
2023-04-08T10:23:10.872Z,13.88
2023-04-08T10:25:41.488Z,13.93
2023-04-08T10:28:16.342Z,13.97
2023-04-08T10:30:48.178Z,14.01
2023-04-08T10:33:29.668Z,14.05
2023-04-08T10:36:10.458Z,14.08
2023-04-08T10:38:39.721Z,14.12
2023-04-08T10:41:08.541Z,14.14
2023-04-08T10:43:37.973Z,14.18
2023-04-08T10:46:06.634Z,14.23
2023-04-08T10:48:34.752Z,14.28
2023-04-08T10:51:04.953Z,14.33
2023-04-08T10:53:35.540Z,14.36
2023-04-08T10:56:15.740Z,14.39
2023-04-08T10:58:51.877Z,14.42
2023-04-08T11:01:20.455Z,14.43
2023-04-08T11:03:49.901Z,14.49
2023-04-08T11:06:19.572Z,14.57
2023-04-08T11:08:47.903Z,14.65
2023-04-08T11:11:16.406Z,14.74
2023-04-08T11:13:53.160Z,14.83
2023-04-08T11:16:23.121Z,14.93
2023-04-08T11:18:52.122Z,15.00
2023-04-08T11:21:22.319Z,15.10
2023-04-08T11:23:52.180Z,15.20
2023-04-08T11:26:21.261Z,15.29
2023-04-08T11:28:51.873Z,15.35
2023-04-08T11:31:24.715Z,15.39
2023-04-08T11:33:55.472Z,15.43
2023-04-08T11:36:23.605Z,15.47
2023-04-08T11:38:54.418Z,15.52
2023-04-08T11:41:23.113Z,15.57
2023-04-08T11:43:56.504Z,15.59
2023-04-08T11:46:25.005Z,15.61
2023-04-08T11:49:07.961Z,15.62
2023-04-08T11:51:55.381Z,15.64
2023-04-08T11:54:30.871Z,15.67
2023-04-08T11:56:59.681Z,15.71
2023-04-08T11:59:29.558Z,15.77
2023-04-08T12:01:59.270Z,15.82
2023-04-08T12:04:27.884Z,15.88
2023-04-08T12:06:58.334Z,15.91
2023-04-08T12:09:27.651Z,15.94
2023-04-08T12:11:57.690Z,15.95
2023-04-08T12:14:28.226Z,15.94
2023-04-08T12:16:56.751Z,15.96
2023-04-08T12:19:24.897Z,15.97
2023-04-08T12:21:53.272Z,15.99
2023-04-08T12:24:21.704Z,16.00
2023-04-08T12:26:49.713Z,16.02
2023-04-08T12:29:18.127Z,15.99
2023-04-08T12:31:47.010Z,15.76
2023-04-08T12:34:15.094Z,15.55
2023-04-08T12:36:44.972Z,15.40
2023-04-08T12:39:13.132Z,15.28
2023-04-08T12:41:41.241Z,15.14
2023-04-08T12:44:09.355Z,15.00
2023-04-08T12:46:37.868Z,14.85
2023-04-08T12:49:06.516Z,14.72
2023-04-08T12:51:35.933Z,14.58
2023-04-08T12:54:05.512Z,14.45
2023-04-08T12:56:34.136Z,14.35
2023-04-08T12:59:02.193Z,14.30
2023-04-08T13:01:31.041Z,14.46
2023-04-08T13:03:59.573Z,14.65
2023-04-08T13:06:28.215Z,14.80
2023-04-08T13:08:56.526Z,14.92
2023-04-08T13:11:25.274Z,15.03
2023-04-08T13:13:53.645Z,15.16
2023-04-08T13:16:22.208Z,15.31
2023-04-08T13:18:50.627Z,15.47
2023-04-08T13:21:19.173Z,15.64
2023-04-08T13:23:47.730Z,15.82
2023-04-08T13:26:16.021Z,15.97
2023-04-08T13:31:18.561Z,15.86
2023-04-08T13:33:46.771Z,15.81
2023-04-08T13:36:14.918Z,15.81
2023-04-08T13:38:43.829Z,15.84
2023-04-08T13:41:12.296Z,15.89
2023-04-08T13:43:41.305Z,15.92
2023-04-08T13:46:09.349Z,15.97
2023-04-08T13:48:37.768Z,16.02
2023-04-08T13:51:05.873Z,16.06
2023-04-08T13:53:33.931Z,16.08
2023-04-08T13:56:02.059Z,16.12
2023-04-08T13:58:30.561Z,16.19
2023-04-08T14:00:58.825Z,16.25
2023-04-08T14:03:28.227Z,16.33
2023-04-08T14:05:57.544Z,16.41
2023-04-08T14:08:26.711Z,16.48
2023-04-08T14:10:58.143Z,16.55
2023-04-08T14:13:26.613Z,16.60
2023-04-08T14:15:58.461Z,16.61
2023-04-08T14:18:27.609Z,16.60
2023-04-08T14:20:56.510Z,16.61
2023-04-08T14:23:24.775Z,16.60
2023-04-08T14:25:53.078Z,16.60
2023-04-08T14:28:21.549Z,16.61
2023-04-08T14:30:49.862Z,16.64
2023-04-08T14:33:19.018Z,16.65
2023-04-08T14:35:47.857Z,16.66
2023-04-08T14:38:16.273Z,16.68
2023-04-08T14:40:44.421Z,16.68
2023-04-08T14:43:13.745Z,16.71
2023-04-08T14:45:42.522Z,16.71
2023-04-08T14:48:11.434Z,16.70
2023-04-08T14:50:39.779Z,16.67
2023-04-08T14:53:07.972Z,16.63
2023-04-08T14:55:36.060Z,16.58
2023-04-08T14:58:04.737Z,16.55
2023-04-08T15:00:32.812Z,16.53
2023-04-08T15:03:01.117Z,16.50
2023-04-08T15:05:29.664Z,16.47
2023-04-08T15:07:57.970Z,16.45
2023-04-08T15:10:28.214Z,16.44
2023-04-08T15:12:56.309Z,16.42
2023-04-08T15:15:24.718Z,16.41
2023-04-08T15:17:52.962Z,16.43
2023-04-08T15:20:21.039Z,16.44
2023-04-08T15:22:49.650Z,16.43
2023-04-08T15:25:17.985Z,16.44
2023-04-08T15:27:46.085Z,16.45
2023-04-08T15:30:14.365Z,16.44
2023-04-08T15:32:42.585Z,16.43
2023-04-08T15:35:11.028Z,16.45
2023-04-08T15:37:39.138Z,16.46
2023-04-08T15:40:08.438Z,16.47
2023-04-08T15:42:36.569Z,16.46
2023-04-08T15:45:04.960Z,16.42
2023-04-08T15:47:34.508Z,16.37
2023-04-08T15:50:02.648Z,16.35
2023-04-08T15:52:32.542Z,16.33
2023-04-08T15:55:02.560Z,16.28
2023-04-08T15:57:32.389Z,16.22
2023-04-08T16:00:00.662Z,16.14
2023-04-08T16:02:29.033Z,16.06
2023-04-08T16:04:57.491Z,15.98
2023-04-08T16:07:25.708Z,15.92
2023-04-08T16:09:53.806Z,15.85
2023-04-08T16:12:21.939Z,15.76
2023-04-08T16:14:51.401Z,15.64
2023-04-08T16:17:19.512Z,15.49
2023-04-08T16:19:47.990Z,15.38
2023-04-08T16:22:16.242Z,15.28
2023-04-08T16:24:44.327Z,15.14
2023-04-08T16:27:12.789Z,15.00
2023-04-08T16:29:41.304Z,14.83
2023-04-08T16:32:09.610Z,14.65
2023-04-08T16:34:38.177Z,14.49
2023-04-08T16:37:06.221Z,14.32
2023-04-08T16:39:34.311Z,14.12
2023-04-08T16:42:02.354Z,13.93
2023-04-08T16:44:30.423Z,13.76
2023-04-08T16:46:58.558Z,13.61
2023-04-08T16:49:26.987Z,13.45
2023-04-08T16:51:55.462Z,13.32
2023-04-08T16:54:23.606Z,13.21
2023-04-08T16:56:52.124Z,13.12
2023-04-08T16:59:20.917Z,13.05
2023-04-08T17:01:49.186Z,12.99
2023-04-08T17:04:17.669Z,12.92
2023-04-08T17:06:45.895Z,12.85
2023-04-08T17:09:14.013Z,12.78
2023-04-08T17:11:42.355Z,12.70
2023-04-08T17:14:10.538Z,12.63
2023-04-08T17:16:38.773Z,12.54
2023-04-08T17:19:07.120Z,12.49
2023-04-08T17:21:35.618Z,12.62
2023-04-08T17:24:04.000Z,12.77
2023-04-08T17:26:32.068Z,12.88
2023-04-08T17:29:00.382Z,12.96
2023-04-08T17:31:28.714Z,13.02
2023-04-08T17:33:56.812Z,13.06
2023-04-08T17:36:26.257Z,13.11
2023-04-08T17:38:55.632Z,13.15
2023-04-08T17:41:38.478Z,13.19
2023-04-08T17:44:08.450Z,13.18
2023-04-08T17:46:36.901Z,13.19
2023-04-08T17:49:05.059Z,13.21
2023-04-08T17:51:34.417Z,13.20
2023-04-08T17:54:03.173Z,13.17
2023-04-08T17:56:31.449Z,13.12
2023-04-08T17:58:59.817Z,13.06
2023-04-08T18:01:28.239Z,13.02
2023-04-08T18:03:57.318Z,13.00
2023-04-08T18:06:26.327Z,12.99
2023-04-08T18:08:54.718Z,12.98
2023-04-08T18:11:26.539Z,12.96
2023-04-08T18:13:54.946Z,12.95
2023-04-08T18:16:23.151Z,12.94
2023-04-08T18:18:51.639Z,12.93
2023-04-08T18:21:19.904Z,12.93
2023-04-08T18:23:49.985Z,12.92
2023-04-08T18:26:18.665Z,12.89
2023-04-08T18:28:47.430Z,12.86
2023-04-08T18:31:16.800Z,12.82
2023-04-08T18:33:45.326Z,12.79
2023-04-08T18:36:14.088Z,12.75
2023-04-08T18:38:44.734Z,12.71
2023-04-08T18:41:13.386Z,12.67
2023-04-08T18:43:42.178Z,12.60
2023-04-08T18:46:10.504Z,12.54
2023-04-08T18:48:38.557Z,12.49
2023-04-08T18:51:08.143Z,12.43
2023-04-08T18:53:36.542Z,12.37
2023-04-08T18:56:05.156Z,12.27
2023-04-08T18:58:33.683Z,12.19
2023-04-08T19:01:08.118Z,12.09
2023-04-08T19:03:37.594Z,12.00
2023-04-08T19:06:10.954Z,11.91
2023-04-08T19:08:39.581Z,11.83
2023-04-08T19:11:07.615Z,11.73
2023-04-08T19:13:36.277Z,11.59
2023-04-08T19:16:05.532Z,11.47
2023-04-08T19:18:33.823Z,11.37
2023-04-08T19:21:01.881Z,11.29
2023-04-08T19:23:30.879Z,11.22
2023-04-08T19:25:59.235Z,11.13
2023-04-08T19:28:27.266Z,11.03
2023-04-08T19:30:55.860Z,10.97
2023-04-08T19:33:24.314Z,10.95
2023-04-08T19:35:52.786Z,10.92
2023-04-08T19:38:21.593Z,10.90
2023-04-08T19:40:49.878Z,10.88
2023-04-08T19:43:18.238Z,10.81
2023-04-08T19:45:46.681Z,10.72
2023-04-08T19:48:14.758Z,10.63
2023-04-08T19:50:43.237Z,10.52
2023-04-08T19:53:11.896Z,10.41
2023-04-08T19:55:40.067Z,10.30
2023-04-08T19:58:08.694Z,10.21
2023-04-08T20:00:38.649Z,10.19
2023-04-08T20:03:08.207Z,10.17
2023-04-08T20:05:37.037Z,10.17
2023-04-08T20:08:05.502Z,10.20
2023-04-08T20:10:35.712Z,10.18
2023-04-08T20:13:03.842Z,10.15
2023-04-08T20:15:32.335Z,10.14
2023-04-08T20:18:00.505Z,10.11
2023-04-08T20:20:29.970Z,10.11
2023-04-08T20:22:58.482Z,10.10
2023-04-08T20:25:26.799Z,10.08
2023-04-08T20:27:55.095Z,10.04
2023-04-08T20:30:24.507Z,10.00
2023-04-08T20:32:52.843Z,9.97
2023-04-08T20:35:22.130Z,9.96
2023-04-08T20:37:50.391Z,9.97
2023-04-08T20:40:18.584Z,9.96
2023-04-08T20:42:46.775Z,9.94
2023-04-08T20:45:15.777Z,9.92
2023-04-08T20:47:46.319Z,9.91
2023-04-08T20:50:14.815Z,9.88
2023-04-08T20:52:43.318Z,9.86
2023-04-08T20:55:11.352Z,9.85
2023-04-08T20:57:39.426Z,9.83
2023-04-08T21:00:15.533Z,9.81
2023-04-08T21:02:45.912Z,9.81
2023-04-08T21:05:14.531Z,9.81
2023-04-08T21:07:44.829Z,9.80
2023-04-08T21:10:14.473Z,9.78
2023-04-08T21:12:43.499Z,9.78
2023-04-08T21:15:11.812Z,9.77
2023-04-08T21:17:40.426Z,9.77
2023-04-08T21:20:09.271Z,9.76
2023-04-08T21:22:37.326Z,9.74
2023-04-08T21:25:06.214Z,9.71
2023-04-08T21:27:34.412Z,9.68
2023-04-08T21:30:04.011Z,9.65
2023-04-08T21:32:32.866Z,9.60
2023-04-08T21:35:01.486Z,9.55
2023-04-08T21:37:29.519Z,9.51
2023-04-08T21:39:57.581Z,9.47
2023-04-08T21:42:26.399Z,9.43
2023-04-08T21:44:54.572Z,9.39
2023-04-08T21:47:22.762Z,9.38
2023-04-08T21:49:50.939Z,9.36
2023-04-08T21:52:19.192Z,9.34
2023-04-08T21:54:51.694Z,9.34
2023-04-08T21:57:20.368Z,9.34
2023-04-08T21:59:48.712Z,9.32
2023-04-08T22:02:17.062Z,9.31
2023-04-08T22:04:48.964Z,9.29
2023-04-08T22:07:17.058Z,9.26
2023-04-08T22:09:46.350Z,9.25
2023-04-08T22:12:14.564Z,9.24
2023-04-08T22:14:42.585Z,9.24
2023-04-08T22:17:10.946Z,9.24
2023-04-08T22:19:39.158Z,9.25
2023-04-08T22:22:07.388Z,9.26
2023-04-08T22:24:35.847Z,9.26
2023-04-08T22:27:04.238Z,9.23
2023-04-08T22:29:32.762Z,9.20
2023-04-08T22:32:01.001Z,9.17
2023-04-08T22:34:29.162Z,9.15
2023-04-08T22:36:57.403Z,9.16
2023-04-08T22:39:26.892Z,9.15
2023-04-08T22:41:55.912Z,9.14
2023-04-08T22:44:24.241Z,9.10
2023-04-08T22:46:52.350Z,9.06
2023-04-08T22:49:20.479Z,9.03
2023-04-08T22:51:48.611Z,9.01
2023-04-08T22:54:16.728Z,9.00
2023-04-08T22:56:44.768Z,8.99
2023-04-08T22:59:12.928Z,9.00
2023-04-08T23:01:41.715Z,8.98
2023-04-08T23:04:09.942Z,8.96
2023-04-08T23:06:38.059Z,8.94
2023-04-08T23:09:06.269Z,8.96
2023-04-08T23:11:34.443Z,8.98
2023-04-08T23:14:02.590Z,9.00
2023-04-08T23:16:31.688Z,9.01
2023-04-08T23:18:59.990Z,9.03
2023-04-08T23:21:28.146Z,9.07
2023-04-08T23:23:56.231Z,9.10
2023-04-08T23:26:25.480Z,9.13
2023-04-08T23:28:54.165Z,9.16
2023-04-08T23:31:22.783Z,9.19
2023-04-08T23:33:51.064Z,9.21
2023-04-08T23:36:19.253Z,9.21
2023-04-08T23:38:47.360Z,9.18
2023-04-08T23:41:15.480Z,9.15
2023-04-08T23:43:43.635Z,9.16
2023-04-08T23:46:11.777Z,9.16
2023-04-08T23:48:39.995Z,9.15
2023-04-08T23:51:08.067Z,9.15
2023-04-08T23:53:36.382Z,9.13
2023-04-08T23:56:08.977Z,9.09
2023-04-08T23:58:37.356Z,9.04
